KBAB/BAB METAR and TAF weather

Enter ICAO airport designator
Station Type Date Time Source
KBAB METAR 2019/08/22 08:58 UTC NOAA

KBAB 220858Z AUTO 15004KT 10SM CLR 21/13 A2976 RMK AO2 SLP080 T02120131 58006 $


Station Type Date Time Source
KBAB Decoded METAR 2019/08/22 08:58 UTC NOAA

Station name not available
Aug 22, 2019 - 04:58 AM EDT / 2019.08.22 0858 UTC
Wind: from the SSE (150 degrees) at 5 MPH (4 KT):0
Visibility: 10 mile(s):0
Sky conditions: clear
Temperature: 70.2 F (21.2 C)
Dew Point: 55.6 F (13.1 C)
Relative Humidity: 59%
Pressure (altimeter): 29.76 in. Hg (1007 hPa)
Pressure tendency: 0.02 inches (0.6 hPa) lower than three hours ago
ob: KBAB 220858Z AUTO 15004KT 10SM CLR 21/13 A2976 RMK AO2 SLP080 T02120131 58006
cycle: 9

Station Type Date Time Source
KBAB TAF 2019/08/22 03:12 UTC NOAA

TAF TAF KBAB 220300Z 2203/2309 VRB06KT 9999 FEW120 FEW250 QNH2963INS TX35/2300Z TN17/2213Z

Example: see airport list